Time;durP1;ratioP1;P1;durP2;ratioP2;P2;SDS_P1;SDS_P2;PMS_P1;PMS_P2;Temp;Humidity;BMP_temperature;BMP_pressure;BME280_temperature;BME280_humidity;BME280_pressure;Samples;Min_cycle;Max_cycle;Signal;HPM_P1;HPM_P2
2021/05/10 00:01:40;;;;;;;4.18;1.67;;;;;;;;;;6847892;28;20042;-90
2021/05/10 00:05:01;;;;;;;3.70;1.83;;;;;;;;;;6832200;28;20125;-91
2021/05/10 00:08:22;;;;;;;4.28;1.65;;;;;;;;;;6847953;28;20460;-90
2021/05/10 00:11:43;;;;;;;3.33;1.52;;;;;;;;;;6859932;28;20054;-90
2021/05/10 00:15:05;;;;;;;3.15;1.30;;;;;;;;;;6855258;28;20089;-90
2021/05/10 00:18:26;;;;;;;1.70;1.50;;;;;;;;;;6848412;28;20041;-91
2021/05/10 00:21:46;;;;;;;4.00;1.85;;;;;;;;;;6881876;28;20031;-90
2021/05/10 00:25:07;;;;;;;4.18;1.40;;;;;;;;;;6855718;28;20034;-90
2021/05/10 00:28:28;;;;;;;4.45;1.50;;;;;;;;;;6873067;23;20013;-80
2021/05/10 00:31:48;;;;;;;2.22;1.27;;;;;;;;;;6891336;28;20104;-79
2021/05/10 00:35:09;;;;;;;4.07;1.95;;;;;;;;;;6889678;28;20152;-79
2021/05/10 00:38:30;;;;;;;5.10;1.80;;;;;;;;;;6890211;28;20105;-79
2021/05/10 00:41:50;;;;;;;2.88;1.85;;;;;;;;;;6890854;28;20081;-79
2021/05/10 00:45:11;;;;;;;2.47;1.48;;;;;;;;;;6890896;28;20425;-79
2021/05/10 00:48:31;;;;;;;3.33;1.52;;;;;;;;;;6889139;28;20034;-79
2021/05/10 00:51:52;;;;;;;2.20;1.55;;;;;;;;;;6890046;28;20061;-79
2021/05/10 00:55:13;;;;;;;2.88;1.30;;;;;;;;;;6890716;28;20037;-79
2021/05/10 00:58:34;;;;;;;2.65;1.55;;;;;;;;;;6890846;28;20031;-79
2021/05/10 01:01:54;;;;;;;2.78;1.73;;;;;;;;;;6888912;28;20093;-79
2021/05/10 01:05:16;;;;;;;4.00;1.63;;;;;;;;;;6895124;28;20038;-79
2021/05/10 01:08:37;;;;;;;2.53;1.50;;;;;;;;;;6894321;28;20041;-79
2021/05/10 01:11:57;;;;;;;2.40;1.55;;;;;;;;;;6895458;28;20105;-80
2021/05/10 01:15:19;;;;;;;3.90;1.58;;;;;;;;;;6894085;28;20034;-79
2021/05/10 01:18:41;;;;;;;2.65;1.48;;;;;;;;;;6893963;28;20034;-79
2021/05/10 01:22:04;;;;;;;1.95;1.50;;;;;;;;;;6894806;28;20038;-80
2021/05/10 01:25:26;;;;;;;3.60;1.40;;;;;;;;;;6894628;28;20026;-78
2021/05/10 01:28:46;;;;;;;4.00;1.38;;;;;;;;;;6894323;28;20051;-79
2021/05/10 01:32:07;;;;;;;6.05;1.70;;;;;;;;;;6895461;28;20061;-79
2021/05/10 01:35:29;;;;;;;2.65;1.45;;;;;;;;;;6894216;28;20125;-79
2021/05/10 01:38:50;;;;;;;5.72;1.60;;;;;;;;;;6895216;28;20106;-79
2021/05/10 01:42:10;;;;;;;3.80;1.42;;;;;;;;;;6895185;28;20029;-79
2021/05/10 01:45:32;;;;;;;2.03;1.30;;;;;;;;;;6894305;28;20037;-79
2021/05/10 01:48:52;;;;;;;5.20;1.42;;;;;;;;;;6893718;28;20420;-80
2021/05/10 01:52:14;;;;;;;5.88;1.75;;;;;;;;;;6894619;28;20492;-80
2021/05/10 01:55:35;;;;;;;2.72;1.60;;;;;;;;;;6894710;28;20440;-79
2021/05/10 01:58:55;;;;;;;2.78;1.40;;;;;;;;;;6894409;28;20372;-79
2021/05/10 02:02:15;;;;;;;2.75;1.50;;;;;;;;;;6894636;28;20483;-79
2021/05/10 02:05:36;;;;;;;3.55;1.42;;;;;;;;;;6894033;28;20049;-79
2021/05/10 02:08:57;;;;;;;2.13;1.33;;;;;;;;;;6893303;28;20035;-79
2021/05/10 02:12:17;;;;;;;2.50;1.50;;;;;;;;;;6892487;28;20027;-79
2021/05/10 02:15:44;;;;;;;4.07;1.55;;;;;;;;;;6894114;28;20109;-78
2021/05/10 02:19:05;;;;;;;5.30;1.20;;;;;;;;;;6892679;28;20034;-79
2021/05/10 02:22:25;;;;;;;3.40;1.50;;;;;;;;;;6893770;28;20069;-79
2021/05/10 02:25:51;;;;;;;1.92;1.27;;;;;;;;;;6891964;28;20033;-79
2021/05/10 02:29:11;;;;;;;2.35;1.42;;;;;;;;;;6893083;28;20046;-79
2021/05/10 02:32:31;;;;;;;4.45;1.60;;;;;;;;;;6893993;28;20069;-79
2021/05/10 02:35:54;;;;;;;1.85;1.48;;;;;;;;;;6893006;28;20058;-79
2021/05/10 02:39:14;;;;;;;3.65;1.58;;;;;;;;;;6893739;28;20026;-79
2021/05/10 02:42:35;;;;;;;3.50;1.60;;;;;;;;;;6886905;28;20033;-79
2021/05/10 02:45:55;;;;;;;3.10;1.33;;;;;;;;;;6893066;28;20101;-79
2021/05/10 02:49:16;;;;;;;4.53;1.80;;;;;;;;;;6883804;28;20105;-79
2021/05/10 02:52:36;;;;;;;2.47;1.20;;;;;;;;;;6887044;28;20371;-80
2021/05/10 02:55:57;;;;;;;7.15;1.48;;;;;;;;;;6892944;28;20033;-79
2021/05/10 02:59:17;;;;;;;3.33;1.67;;;;;;;;;;6887267;28;20074;-79
2021/05/10 03:02:38;;;;;;;3.78;1.40;;;;;;;;;;6885342;28;20042;-79
2021/05/10 03:05:58;;;;;;;1.42;1.05;;;;;;;;;;6892404;28;20036;-79
2021/05/10 03:09:18;;;;;;;1.85;1.45;;;;;;;;;;6892798;28;20030;-79
2021/05/10 03:12:39;;;;;;;5.55;1.48;;;;;;;;;;6878852;28;20102;-80
2021/05/10 03:16:00;;;;;;;1.85;1.30;;;;;;;;;;6882763;28;20030;-79
2021/05/10 03:19:20;;;;;;;3.78;1.00;;;;;;;;;;6892824;28;20484;-79
2021/05/10 03:22:41;;;;;;;4.30;1.13;;;;;;;;;;6892128;28;20040;-78
2021/05/10 03:26:02;;;;;;;2.22;1.02;;;;;;;;;;6891509;28;20037;-79
2021/05/10 03:29:22;;;;;;;2.88;1.83;;;;;;;;;;6892031;28;20081;-79
2021/05/10 03:32:43;;;;;;;1.50;1.30;;;;;;;;;;6892256;28;20472;-79
2021/05/10 03:36:04;;;;;;;1.83;1.50;;;;;;;;;;6891923;28;20034;-80
2021/05/10 03:39:24;;;;;;;1.80;1.60;;;;;;;;;;6891842;28;20384;-79
2021/05/10 03:42:46;;;;;;;7.82;1.30;;;;;;;;;;6891240;28;20029;-79
2021/05/10 03:46:06;;;;;;;2.63;1.30;;;;;;;;;;6891275;28;20423;-80
2021/05/10 03:49:27;;;;;;;3.10;1.50;;;;;;;;;;6891778;28;20476;-80
2021/05/10 03:52:49;;;;;;;2.40;1.27;;;;;;;;;;6890967;28;20068;-79
2021/05/10 03:56:10;;;;;;;12.68;1.90;;;;;;;;;;6889854;28;20053;-79
2021/05/10 03:59:30;;;;;;;5.65;1.40;;;;;;;;;;6880600;28;20038;-80
2021/05/10 04:02:51;;;;;;;2.55;1.30;;;;;;;;;;6888177;28;20069;-79
2021/05/10 04:06:30;;;;;;;2.65;1.20;;;;;;;;;;6890894;28;20460;-79
2021/05/10 04:16:51;;;;;;;3.03;1.20;;;;;;;;;;6890642;28;20058;-80
2021/05/10 04:20:12;;;;;;;2.63;1.50;;;;;;;;;;6891335;28;20137;-80
2021/05/10 04:23:32;;;;;;;1.13;1.02;;;;;;;;;;6877591;28;20034;-79
2021/05/10 04:26:52;;;;;;;2.85;1.40;;;;;;;;;;6887948;28;20026;-80
2021/05/10 04:30:14;;;;;;;1.83;1.25;;;;;;;;;;6890230;28;20050;-80
2021/05/10 04:33:35;;;;;;;5.22;0.85;;;;;;;;;;6890965;28;20037;-80
2021/05/10 04:36:55;;;;;;;2.10;1.50;;;;;;;;;;6886755;28;20054;-80
2021/05/10 04:40:16;;;;;;;2.30;1.60;;;;;;;;;;6890945;28;20033;-80
2021/05/10 04:43:37;;;;;;;1.13;1.02;;;;;;;;;;6890486;28;20030;-80
2021/05/10 04:46:57;;;;;;;1.83;1.23;;;;;;;;;;6890495;28;20042;-80
2021/05/10 04:50:18;;;;;;;2.33;1.23;;;;;;;;;;6890714;28;20101;-80
2021/05/10 04:53:38;;;;;;;1.98;1.20;;;;;;;;;;6890440;28;20388;-81
2021/05/10 04:56:59;;;;;;;1.27;1.10;;;;;;;;;;6890346;28;20073;-80
2021/05/10 05:00:19;;;;;;;1.95;1.33;;;;;;;;;;6890583;28;20396;-80
2021/05/10 05:03:40;;;;;;;1.30;1.00;;;;;;;;;;6890687;28;20096;-79
2021/05/10 05:07:00;;;;;;;3.45;1.17;;;;;;;;;;6888874;28;20026;-78
2021/05/10 05:10:21;;;;;;;2.15;0.88;;;;;;;;;;6889785;28;20061;-78
2021/05/10 05:13:41;;;;;;;1.75;1.20;;;;;;;;;;6889406;28;20063;-78
2021/05/10 05:17:02;;;;;;;3.58;1.10;;;;;;;;;;6889871;28;20168;-78
2021/05/10 05:20:22;;;;;;;1.10;1.00;;;;;;;;;;6886989;28;20455;-78
2021/05/10 05:23:42;;;;;;;1.83;1.30;;;;;;;;;;6889640;28;20478;-77
2021/05/10 05:27:03;;;;;;;1.38;1.23;;;;;;;;;;6888171;28;20034;-77
2021/05/10 05:30:24;;;;;;;1.90;1.50;;;;;;;;;;6887985;28;20055;-78
2021/05/10 05:33:44;;;;;;;1.92;1.30;;;;;;;;;;6889474;28;20038;-78
2021/05/10 05:37:05;;;;;;;4.43;2.78;;;;;;;;;;6889526;28;20113;-77
2021/05/10 05:40:25;;;;;;;3.92;2.55;;;;;;;;;;6889822;28;20165;-77
2021/05/10 05:43:46;;;;;;;4.78;2.88;;;;;;;;;;6888269;28;20457;-78
2021/05/10 05:47:06;;;;;;;8.18;7.57;;;;;;;;;;6889210;28;20030;-77
2021/05/10 05:50:26;;;;;;;7.32;6.82;;;;;;;;;;6892441;28;20380;-78
2021/05/10 05:53:47;;;;;;;7.32;6.82;;;;;;;;;;6886514;28;20504;-77
2021/05/10 05:57:07;;;;;;;4.53;1.70;;;;;;;;;;6907589;28;20037;-78
2021/05/10 06:00:28;;;;;;;1.88;1.50;;;;;;;;;;6899677;28;20031;-78
2021/05/10 06:03:49;;;;;;;1.80;1.67;;;;;;;;;;6894352;28;20057;-78
2021/05/10 06:07:09;;;;;;;2.88;1.63;;;;;;;;;;6899589;28;20110;-78
2021/05/10 06:10:29;;;;;;;2.03;1.63;;;;;;;;;;6893289;28;20086;-78
2021/05/10 06:13:50;;;;;;;2.20;1.42;;;;;;;;;;6891917;28;20507;-78
2021/05/10 06:17:10;;;;;;;3.55;1.50;;;;;;;;;;6895237;28;20065;-79
2021/05/10 06:20:31;;;;;;;1.55;1.45;;;;;;;;;;6882469;28;20034;-78
2021/05/10 06:23:52;;;;;;;2.38;1.40;;;;;;;;;;6893153;28;20042;-79
2021/05/10 06:27:13;;;;;;;1.80;1.70;;;;;;;;;;6894129;28;20061;-78
2021/05/10 06:30:33;;;;;;;2.53;1.80;;;;;;;;;;6891720;28;20050;-80
2021/05/10 06:33:53;;;;;;;8.10;1.80;;;;;;;;;;6900343;28;20030;-81
2021/05/10 06:37:19;;;;;;;4.65;1.60;;;;;;;;;;6892026;28;20092;-80
2021/05/10 06:40:39;;;;;;;8.20;4.78;;;;;;;;;;6893088;28;20440;-82
2021/05/10 06:44:00;;;;;;;11.07;4.55;;;;;;;;;;6893008;28;20479;-83
2021/05/10 06:47:21;;;;;;;15.35;6.05;;;;;;;;;;6890758;28;20674;-83
2021/05/10 06:50:41;;;;;;;24.67;6.05;;;;;;;;;;6890806;28;20049;-83
2021/05/10 06:54:02;;;;;;;11.68;5.07;;;;;;;;;;6891858;28;20118;-83
2021/05/10 06:57:22;;;;;;;13.32;5.10;;;;;;;;;;6887356;28;20176;-83
2021/05/10 07:00:43;;;;;;;18.48;3.85;;;;;;;;;;6890255;28;20050;-83
2021/05/10 07:04:03;;;;;;;8.32;3.13;;;;;;;;;;6891486;28;20030;-83
2021/05/10 07:07:23;;;;;;;5.90;3.08;;;;;;;;;;6890891;28;20077;-83
2021/05/10 07:10:52;;;;;;;5.25;2.58;;;;;;;;;;6891374;28;20109;-86
2021/05/10 07:14:12;;;;;;;5.10;2.57;;;;;;;;;;6873331;28;20040;-86
2021/05/10 07:17:33;;;;;;;4.75;2.20;;;;;;;;;;6892552;28;20444;-84
2021/05/10 07:20:53;;;;;;;15.68;2.35;;;;;;;;;;6892783;28;20176;-86
2021/05/10 07:24:14;;;;;;;10.48;2.88;;;;;;;;;;6894945;28;20463;-85
2021/05/10 07:27:34;;;;;;;10.07;2.47;;;;;;;;;;6892437;28;20042;-85
2021/05/10 07:30:54;;;;;;;3.28;2.05;;;;;;;;;;6891559;28;20050;-87
2021/05/10 07:34:15;;;;;;;5.55;2.15;;;;;;;;;;6891377;28;20057;-86
2021/05/10 07:37:35;;;;;;;7.57;2.17;;;;;;;;;;6891534;28;20039;-87
2021/05/10 07:40:56;;;;;;;7.93;2.10;;;;;;;;;;6891627;28;20026;-85
2021/05/10 07:44:16;;;;;;;5.57;2.03;;;;;;;;;;6891839;28;20053;-87
2021/05/10 07:47:37;;;;;;;4.78;1.85;;;;;;;;;;6891609;28;20451;-84
2021/05/10 07:50:58;;;;;;;6.53;2.67;;;;;;;;;;6890764;28;20120;-86
2021/05/10 07:54:18;;;;;;;4.82;2.00;;;;;;;;;;6891934;28;20034;-86
2021/05/10 07:57:39;;;;;;;10.85;2.33;;;;;;;;;;6891504;28;20060;-84
2021/05/10 08:01:03;;;;;;;8.13;2.30;;;;;;;;;;6885480;28;20062;-85
2021/05/10 08:04:24;;;;;;;7.03;2.28;;;;;;;;;;6875136;28;20054;-84
2021/05/10 08:07:44;;;;;;;3.90;2.42;;;;;;;;;;6891510;28;20033;-84
2021/05/10 08:11:05;;;;;;;5.68;2.10;;;;;;;;;;6873211;28;20054;-85
2021/05/10 08:14:26;;;;;;;4.28;1.92;;;;;;;;;;6890957;28;20474;-85
2021/05/10 08:17:47;;;;;;;4.57;2.08;;;;;;;;;;6889769;28;20397;-84
2021/05/10 08:21:08;;;;;;;4.13;1.92;;;;;;;;;;6894583;28;20065;-84
2021/05/10 08:24:29;;;;;;;3.47;2.00;;;;;;;;;;6890649;28;20064;-82
2021/05/10 08:27:50;;;;;;;3.22;2.00;;;;;;;;;;6901382;28;20022;-83
2021/05/10 08:31:10;;;;;;;4.25;1.88;;;;;;;;;;6891359;28;20046;-84
2021/05/10 08:34:31;;;;;;;4.55;1.90;;;;;;;;;;6895285;28;20062;-82
2021/05/10 08:37:51;;;;;;;5.70;2.17;;;;;;;;;;6890817;28;20077;-85
2021/05/10 08:41:12;;;;;;;4.97;1.92;;;;;;;;;;6891521;28;20065;-84
2021/05/10 08:44:32;;;;;;;10.98;2.28;;;;;;;;;;6881498;28;20034;-85
2021/05/10 08:47:58;;;;;;;5.80;2.25;;;;;;;;;;6899110;28;20038;-84
2021/05/10 08:51:19;;;;;;;4.70;1.98;;;;;;;;;;6890045;28;20072;-86
2021/05/10 08:54:39;;;;;;;7.18;2.03;;;;;;;;;;6890459;28;20042;-86
2021/05/10 08:58:00;;;;;;;6.97;2.38;;;;;;;;;;6896143;28;20034;-85
2021/05/10 09:01:21;;;;;;;4.20;1.77;;;;;;;;;;6891004;28;20048;-84
2021/05/10 09:04:42;;;;;;;5.50;1.95;;;;;;;;;;6889613;28;20100;-84
2021/05/10 09:08:07;;;;;;;7.38;2.10;;;;;;;;;;6890028;28;20036;-84
2021/05/10 09:11:27;;;;;;;10.85;2.00;;;;;;;;;;6891478;28;20057;-83
2021/05/10 09:14:48;;;;;;;3.80;1.92;;;;;;;;;;6892999;28;20368;-85
2021/05/10 09:18:09;;;;;;;4.95;1.80;;;;;;;;;;6892215;28;20364;-83
2021/05/10 09:21:30;;;;;;;6.05;2.03;;;;;;;;;;6885525;28;20034;-84
2021/05/10 09:24:52;;;;;;;3.65;1.73;;;;;;;;;;6895361;28;20081;-86
2021/05/10 09:28:20;;;;;;;2.58;1.55;;;;;;;;;;6896840;28;20503;-86
2021/05/10 09:31:47;;;;;;;4.72;1.83;;;;;;;;;;6898650;28;20053;-84
2021/05/10 09:35:22;;;;;;;2.10;1.40;;;;;;;;;;6896267;28;20042;-83
2021/05/10 09:38:47;;;;;;;4.05;1.77;;;;;;;;;;6901502;28;20372;-84
2021/05/10 09:42:08;;;;;;;5.38;1.77;;;;;;;;;;6898035;28;20026;-84
2021/05/10 09:45:32;;;;;;;3.08;1.92;;;;;;;;;;6893677;28;20033;-83
2021/05/10 09:49:00;;;;;;;5.55;1.75;;;;;;;;;;6874065;28;20030;-85
2021/05/10 09:52:25;;;;;;;6.70;1.80;;;;;;;;;;6894703;28;20475;-84
2021/05/10 09:55:54;;;;;;;5.63;1.60;;;;;;;;;;6877667;28;20038;-83
2021/05/10 09:59:15;;;;;;;;;;;;;;;;;;6894084;28;20085;-83
2021/05/10 10:02:36;;;;;;;3.97;1.60;;;;;;;;;;6893134;28;20016;-84
2021/05/10 10:06:02;;;;;;;4.90;2.17;;;;;;;;;;6894085;28;20030;-84
2021/05/10 10:09:22;;;;;;;3.55;1.58;;;;;;;;;;6894733;28;20038;-84
2021/05/10 10:12:43;;;;;;;5.22;1.55;;;;;;;;;;6894308;28;20113;-85
2021/05/10 10:16:07;;;;;;;4.38;1.60;;;;;;;;;;6893033;28;20076;-84
2021/05/10 10:19:27;;;;;;;4.47;1.67;;;;;;;;;;6893928;28;20139;-84
2021/05/10 10:22:50;;;;;;;2.33;1.60;;;;;;;;;;6893322;28;20345;-83
2021/05/10 10:26:13;;;;;;;6.80;1.63;;;;;;;;;;6892682;28;20069;-83
2021/05/10 10:29:35;;;;;;;9.05;1.73;;;;;;;;;;6891558;28;20435;-83
2021/05/10 10:32:56;;;;;;;5.18;1.50;;;;;;;;;;6892957;28;20031;-82
2021/05/10 10:36:19;;;;;;;5.43;1.80;;;;;;;;;;6894208;28;20106;-83
2021/05/10 10:40:14;;;;;;;5.35;1.80;;;;;;;;;;6894183;28;20403;-83
2021/05/10 10:43:35;;;;;;;3.83;1.58;;;;;;;;;;6881257;28;20057;-85
2021/05/10 10:46:55;;;;;;;7.18;1.73;;;;;;;;;;6895320;28;20360;-82
2021/05/10 10:50:21;;;;;;;4.97;1.73;;;;;;;;;;6897817;28;20379;-83
2021/05/10 10:53:49;;;;;;;4.03;1.40;;;;;;;;;;6892681;28;20026;-84
2021/05/10 10:57:10;;;;;;;6.43;1.90;;;;;;;;;;6899366;28;20383;-84
2021/05/10 11:00:56;;;;;;;3.40;1.83;;;;;;;;;;6905521;28;20498;-84
2021/05/10 11:04:27;;;;;;;3.40;1.50;;;;;;;;;;6892365;28;20608;-84
2021/05/10 11:08:03;;;;;;;4.05;1.90;;;;;;;;;;6891294;28;20105;-84
2021/05/10 11:11:26;;;;;;;3.35;1.73;;;;;;;;;;6875708;28;20034;-85
2021/05/10 11:14:47;;;;;;;4.30;2.08;;;;;;;;;;6892787;28;20049;-84
2021/05/10 11:18:08;;;;;;;4.28;1.67;;;;;;;;;;6892500;28;20049;-84
2021/05/10 11:21:28;;;;;;;2.03;1.42;;;;;;;;;;6892152;28;20534;-84
2021/05/10 11:24:48;;;;;;;3.63;1.63;;;;;;;;;;6891993;28;20092;-84
2021/05/10 11:28:32;;;;;;;5.50;1.65;;;;;;;;;;6892460;28;20475;-85
2021/05/10 11:31:55;;;;;;;3.20;2.30;;;;;;;;;;6881328;28;20097;-84
2021/05/10 11:35:27;;;;;;;3.97;1.80;;;;;;;;;;6890828;28;20435;-92
2021/05/10 11:38:51;;;;;;;8.13;2.20;;;;;;;;;;6890490;28;20033;-86
2021/05/10 11:42:12;;;;;;;14.60;2.53;;;;;;;;;;6888156;28;20038;-87
2021/05/10 11:45:42;;;;;;;5.97;1.73;;;;;;;;;;6891332;28;20030;-86
2021/05/10 11:49:04;;;;;;;6.40;2.03;;;;;;;;;;6890536;28;20037;-86
2021/05/10 11:52:26;;;;;;;9.30;1.95;;;;;;;;;;6891335;28;20042;-87
2021/05/10 11:55:58;;;;;;;5.60;1.95;;;;;;;;;;6890543;28;20452;-87
2021/05/10 12:03:27;;;;;;;8.38;2.08;;;;;;;;;;6835105;29;20181;-87
2021/05/10 12:06:48;;;;;;;6.65;1.70;;;;;;;;;;6821584;29;20047;-86
2021/05/10 12:10:13;;;;;;;7.25;2.10;;;;;;;;;;6803907;29;20131;-86
2021/05/10 12:13:33;;;;;;;7.75;2.13;;;;;;;;;;6822284;29;20075;-86
2021/05/10 12:17:13;;;;;;;4.43;2.22;;;;;;;;;;6834189;29;20038;-87
2021/05/10 12:20:33;;;;;;;5.45;2.00;;;;;;;;;;6803047;29;20056;-86
2021/05/10 12:24:05;;;;;;;6.85;2.03;;;;;;;;;;6834252;29;20039;-86
2021/05/10 12:27:29;;;;;;;6.47;2.28;;;;;;;;;;6820276;29;20083;-83
2021/05/10 12:46:05;;;;;;;8.45;1.77;;;;;;;;;;8054079;23;20047;-89
2021/05/10 12:49:26;;;;;;;5.63;2.35;;;;;;;;;;6832859;28;20040;-85
2021/05/10 12:52:51;;;;;;;11.70;2.08;;;;;;;;;;6841992;28;20054;-85
2021/05/10 12:56:12;;;;;;;7.80;2.05;;;;;;;;;;6830261;28;20031;-84
2021/05/10 12:59:53;;;;;;;6.85;1.88;;;;;;;;;;6843530;28;20376;-85
2021/05/10 13:03:30;;;;;;;5.00;1.80;;;;;;;;;;6844829;29;20050;-85
2021/05/10 13:06:55;;;;;;;6.72;1.98;;;;;;;;;;6843457;28;20044;-84
2021/05/10 13:10:19;;;;;;;14.32;2.95;;;;;;;;;;6843668;28;20039;-85
2021/05/10 13:13:49;;;;;;;8.05;2.03;;;;;;;;;;6844772;28;20038;-84
2021/05/10 13:32:11;;;;;;;4.30;1.65;;;;;;;;;;6839680;29;20031;-86
2021/05/10 13:39:14;;;;;;;5.22;1.80;;;;;;;;;;6840411;29;20035;-85
2021/05/10 13:42:39;;;;;;;4.15;1.90;;;;;;;;;;6840828;28;20043;-85
2021/05/10 13:46:03;;;;;;;2.22;1.30;;;;;;;;;;6845713;28;20043;-87
2021/05/10 13:49:27;;;;;;;9.52;1.55;;;;;;;;;;6839784;28;20035;-91
2021/05/10 13:52:47;;;;;;;5.40;1.67;;;;;;;;;;6871653;28;20042;-87
2021/05/10 13:56:07;;;;;;;4.35;2.10;;;;;;;;;;6844444;28;20039;-91
2021/05/10 13:59:30;;;;;;;13.35;2.20;;;;;;;;;;6859617;28;20413;-89
2021/05/10 14:02:51;;;;;;;5.53;1.63;;;;;;;;;;6844926;28;20038;-87
2021/05/10 14:06:12;;;;;;;4.80;1.83;;;;;;;;;;6849280;28;20031;-85
2021/05/10 14:09:32;;;;;;;3.03;1.70;;;;;;;;;;6883581;28;20105;-84
2021/05/10 14:12:56;;;;;;;5.07;1.85;;;;;;;;;;6874604;28;20055;-89
2021/05/10 14:16:20;;;;;;;9.05;1.67;;;;;;;;;;6858523;28;20067;-93
2021/05/10 14:19:41;;;;;;;7.00;2.03;;;;;;;;;;6832969;28;20061;-91
2021/05/10 14:23:02;;;;;;;7.75;2.15;;;;;;;;;;6842203;28;20460;-88
2021/05/10 14:26:22;;;;;;;4.47;2.15;;;;;;;;;;6871901;28;20468;-88
2021/05/10 14:29:42;;;;;;;2.95;1.55;;;;;;;;;;6864961;28;20037;-88
2021/05/10 14:33:03;;;;;;;3.38;1.55;;;;;;;;;;6877495;28;20409;-89
2021/05/10 14:36:24;;;;;;;5.53;1.65;;;;;;;;;;6870107;28;20039;-87
2021/05/10 14:39:45;;;;;;;5.00;1.48;;;;;;;;;;6863775;28;20103;-89
2021/05/10 14:43:05;;;;;;;3.03;1.75;;;;;;;;;;6839351;28;20031;-88
2021/05/10 14:46:25;;;;;;;4.50;1.60;;;;;;;;;;6864840;28;20483;-88
2021/05/10 14:49:46;;;;;;;1.48;1.38;;;;;;;;;;6874857;28;20456;-88
2021/05/10 14:53:07;;;;;;;4.45;1.90;;;;;;;;;;6851466;28;20118;-88
2021/05/10 14:56:27;;;;;;;7.90;1.50;;;;;;;;;;6857980;28;20472;-87
2021/05/10 14:59:48;;;;;;;3.53;1.55;;;;;;;;;;6851056;28;20035;-88
2021/05/10 15:03:08;;;;;;;5.93;1.60;;;;;;;;;;6864940;28;20073;-88
2021/05/10 15:06:29;;;;;;;6.47;1.83;;;;;;;;;;6864775;28;20027;-88
2021/05/10 15:09:49;;;;;;;12.15;2.25;;;;;;;;;;6853745;28;20031;-87
2021/05/10 15:13:10;;;;;;;5.60;1.85;;;;;;;;;;6865408;28;20116;-88
2021/05/10 15:16:31;;;;;;;4.65;1.40;;;;;;;;;;6864184;28;20039;-88
2021/05/10 15:19:51;;;;;;;4.00;1.83;;;;;;;;;;6851354;28;20062;-86
2021/05/10 15:23:12;;;;;;;9.55;1.67;;;;;;;;;;6875616;28;20034;-88
2021/05/10 15:26:33;;;;;;;5.60;1.80;;;;;;;;;;6876011;28;20034;-88
2021/05/10 15:29:53;;;;;;;6.18;1.60;;;;;;;;;;6838949;28;20134;-87
2021/05/10 15:33:14;;;;;;;7.53;1.27;;;;;;;;;;6853289;28;20062;-88
2021/05/10 15:36:37;;;;;;;5.45;1.70;;;;;;;;;;6863813;28;20058;-86
2021/05/10 15:39:57;;;;;;;2.53;1.63;;;;;;;;;;6858398;28;20045;-86
2021/05/10 15:43:18;;;;;;;6.55;1.65;;;;;;;;;;6864433;28;20034;-88
2021/05/10 15:46:38;;;;;;;3.92;1.75;;;;;;;;;;6847881;28;20592;-83
2021/05/10 15:49:59;;;;;;;4.70;1.52;;;;;;;;;;6863360;28;20042;-84
2021/05/10 15:53:19;;;;;;;3.30;1.65;;;;;;;;;;6840503;28;20157;-83
2021/05/10 15:56:41;;;;;;;4.28;1.90;;;;;;;;;;6863852;28;20070;-83
2021/05/10 16:00:04;;;;;;;2.90;1.55;;;;;;;;;;6859173;28;20374;-86
2021/05/10 16:03:24;;;;;;;2.40;1.75;;;;;;;;;;6863427;28;20090;-84
2021/05/10 16:06:45;;;;;;;3.75;1.58;;;;;;;;;;6853902;28;20113;-84
2021/05/10 16:10:06;;;;;;;4.50;1.65;;;;;;;;;;6863719;28;20026;-84
2021/05/10 16:13:28;;;;;;;3.40;1.50;;;;;;;;;;6859671;28;20042;-84
2021/05/10 16:16:48;;;;;;;2.67;1.52;;;;;;;;;;6847139;28;20035;-85
2021/05/10 16:20:09;;;;;;;4.13;1.33;;;;;;;;;;6841337;28;20425;-86
2021/05/10 16:23:29;;;;;;;1.98;1.50;;;;;;;;;;6851615;28;20126;-83
2021/05/10 16:26:50;;;;;;;4.50;1.83;;;;;;;;;;6850937;28;20031;-84
2021/05/10 16:30:11;;;;;;;9.82;2.05;;;;;;;;;;6853875;28;20448;-83
2021/05/10 16:33:31;;;;;;;4.22;1.83;;;;;;;;;;6857118;28;20035;-84
2021/05/10 16:36:52;;;;;;;5.00;1.65;;;;;;;;;;6866121;28;20060;-84
2021/05/10 16:40:13;;;;;;;4.35;1.70;;;;;;;;;;6863414;28;20089;-83
2021/05/10 16:43:34;;;;;;;4.53;1.70;;;;;;;;;;6853922;28;20130;-83
2021/05/10 16:46:54;;;;;;;3.13;1.70;;;;;;;;;;6853673;28;20043;-84
2021/05/10 16:50:15;;;;;;;3.08;1.60;;;;;;;;;;6855845;28;20058;-84
2021/05/10 16:53:35;;;;;;;3.75;1.40;;;;;;;;;;6857479;28;20089;-84
2021/05/10 16:56:56;;;;;;;2.15;1.55;;;;;;;;;;6856041;28;20054;-84
2021/05/10 17:00:17;;;;;;;3.63;1.50;;;;;;;;;;6860711;28;20047;-85
2021/05/10 17:03:37;;;;;;;6.22;1.70;;;;;;;;;;6840308;28;20472;-84
2021/05/10 17:06:57;;;;;;;4.90;1.40;;;;;;;;;;6848907;28;20110;-85
2021/05/10 17:10:18;;;;;;;4.35;1.90;;;;;;;;;;6855471;28;20060;-84
2021/05/10 17:13:41;;;;;;;8.73;1.70;;;;;;;;;;6858788;28;20041;-84
2021/05/10 17:17:01;;;;;;;5.65;2.10;;;;;;;;;;6862623;28;20037;-85
2021/05/10 17:20:22;;;;;;;3.65;1.40;;;;;;;;;;6844614;28;20039;-85
2021/05/10 17:23:42;;;;;;;6.55;1.50;;;;;;;;;;6854344;28;20031;-87
2021/05/10 17:27:03;;;;;;;3.92;1.60;;;;;;;;;;6860745;28;20030;-85
2021/05/10 17:30:23;;;;;;;5.80;1.60;;;;;;;;;;6862862;28;20115;-85
2021/05/10 17:33:44;;;;;;;6.95;2.13;;;;;;;;;;6872549;28;20046;-86
2021/05/10 17:37:04;;;;;;;4.43;1.70;;;;;;;;;;6849737;28;20125;-85
2021/05/10 17:40:25;;;;;;;4.28;2.03;;;;;;;;;;6862821;28;20038;-85
2021/05/10 17:43:45;;;;;;;5.97;1.70;;;;;;;;;;6859709;28;20034;-83
2021/05/10 17:47:06;;;;;;;5.43;1.88;;;;;;;;;;6849494;28;20057;-83
2021/05/10 17:50:26;;;;;;;7.00;2.10;;;;;;;;;;6854878;28;20041;-84
2021/05/10 17:53:47;;;;;;;5.32;1.52;;;;;;;;;;6866738;28;20360;-84
2021/05/10 17:57:08;;;;;;;9.95;1.88;;;;;;;;;;6855265;28;20065;-83
2021/05/10 18:00:29;;;;;;;5.72;2.05;;;;;;;;;;6857463;28;20034;-83
2021/05/10 18:03:52;;;;;;;4.93;2.03;;;;;;;;;;6858830;28;20058;-82
2021/05/10 18:07:13;;;;;;;9.43;1.83;;;;;;;;;;6855644;28;20125;-84
2021/05/10 18:10:35;;;;;;;7.82;2.70;;;;;;;;;;6864830;28;20106;-82
2021/05/10 18:13:55;;;;;;;10.20;2.65;;;;;;;;;;6859440;28;20066;-82
2021/05/10 18:17:16;;;;;;;8.35;2.28;;;;;;;;;;6859461;28;20050;-82
2021/05/10 18:20:36;;;;;;;9.02;2.28;;;;;;;;;;6867492;28;20038;-82
2021/05/10 18:23:58;;;;;;;9.30;2.42;;;;;;;;;;6874617;28;20050;-83
2021/05/10 18:27:18;;;;;;;8.88;2.78;;;;;;;;;;6857539;28;20066;-82
2021/05/10 18:30:38;;;;;;;8.73;2.50;;;;;;;;;;6876029;28;20062;-83
2021/05/10 18:33:59;;;;;;;5.13;2.17;;;;;;;;;;6873121;28;20444;-83
2021/05/10 18:40:40;;;;;;;11.20;2.13;;;;;;;;;;6871304;28;20074;-81
2021/05/10 18:44:01;;;;;;;8.23;2.33;;;;;;;;;;6865949;28;20117;-82
2021/05/10 18:47:24;;;;;;;8.40;2.03;;;;;;;;;;6858899;28;20054;-83
2021/05/10 18:50:47;;;;;;;7.53;2.42;;;;;;;;;;6854369;28;20039;-84
2021/05/10 18:54:07;;;;;;;7.78;2.03;;;;;;;;;;6857392;28;20063;-82
2021/05/10 18:57:28;;;;;;;8.63;2.40;;;;;;;;;;6858749;28;20077;-82
2021/05/10 19:00:48;;;;;;;9.90;2.65;;;;;;;;;;6866421;28;20070;-81
2021/05/10 19:04:08;;;;;;;4.38;1.73;;;;;;;;;;6853390;28;20062;-82
2021/05/10 19:07:29;;;;;;;7.32;2.10;;;;;;;;;;6865809;28;20085;-82
2021/05/10 19:10:50;;;;;;;8.35;2.17;;;;;;;;;;6867874;28;20047;-81
2021/05/10 19:14:12;;;;;;;8.52;2.13;;;;;;;;;;6854346;28;20074;-82
2021/05/10 19:17:32;;;;;;;10.65;2.47;;;;;;;;;;6852359;28;20097;-82
2021/05/10 19:20:53;;;;;;;8.85;2.10;;;;;;;;;;6857002;28;20070;-83
2021/05/10 19:24:13;;;;;;;7.15;1.83;;;;;;;;;;6851095;28;20038;-82
2021/05/10 19:27:34;;;;;;;5.97;1.95;;;;;;;;;;6855110;28;20105;-82
2021/05/10 19:30:54;;;;;;;5.18;2.25;;;;;;;;;;6858760;28;20038;-83
2021/05/10 19:34:15;;;;;;;10.02;1.98;;;;;;;;;;6853686;28;20540;-83
2021/05/10 19:37:35;;;;;;;9.80;2.08;;;;;;;;;;6851077;28;20063;-82
2021/05/10 19:40:56;;;;;;;6.03;1.95;;;;;;;;;;6860659;28;20037;-82
2021/05/10 19:44:16;;;;;;;7.57;1.90;;;;;;;;;;6852826;28;20118;-82
2021/05/10 20:01:35;;;;;;;9.30;1.90;;;;;;;;;;6863883;28;19918;-82
2021/05/10 20:04:55;;;;;;;9.57;2.35;;;;;;;;;;6860494;28;20050;-83
2021/05/10 20:08:16;;;;;;;7.15;2.10;;;;;;;;;;6853963;28;20512;-83
2021/05/10 20:11:36;;;;;;;14.30;2.72;;;;;;;;;;6860763;28;20054;-82
2021/05/10 20:14:57;;;;;;;9.23;2.20;;;;;;;;;;6860974;28;20031;-84
2021/05/10 20:18:17;;;;;;;6.72;2.25;;;;;;;;;;6856817;28;20031;-82
2021/05/10 20:21:38;;;;;;;9.20;2.92;;;;;;;;;;6860197;28;20113;-82
2021/05/10 20:24:58;;;;;;;7.60;2.03;;;;;;;;;;6855238;28;20062;-82
2021/05/10 20:28:19;;;;;;;12.82;3.20;;;;;;;;;;6859936;28;20035;-82
2021/05/10 20:31:40;;;;;;;7.47;2.50;;;;;;;;;;6854325;28;20050;-82
2021/05/10 20:35:01;;;;;;;9.85;2.58;;;;;;;;;;6853756;28;20034;-82
2021/05/10 20:38:21;;;;;;;13.35;3.03;;;;;;;;;;6840808;28;20061;-82
2021/05/10 20:41:42;;;;;;;12.32;2.53;;;;;;;;;;6854273;28;20123;-82
2021/05/10 20:45:02;;;;;;;6.53;2.40;;;;;;;;;;6852982;28;20031;-83
2021/05/10 20:48:23;;;;;;;12.25;2.83;;;;;;;;;;6864845;28;20166;-82
2021/05/10 20:51:43;;;;;;;8.82;2.55;;;;;;;;;;6878664;28;20134;-83
2021/05/10 20:55:05;;;;;;;6.45;2.28;;;;;;;;;;6877033;28;20113;-83
2021/05/10 20:58:25;;;;;;;10.32;2.70;;;;;;;;;;6861589;28;20047;-84
2021/05/10 21:01:46;;;;;;;18.60;2.90;;;;;;;;;;6856007;28;20445;-82
2021/05/10 21:05:06;;;;;;;16.02;2.97;;;;;;;;;;6857932;28;20074;-83
2021/05/10 21:08:27;;;;;;;13.85;2.97;;;;;;;;;;6846882;28;20042;-85
2021/05/10 21:11:47;;;;;;;6.53;2.17;;;;;;;;;;6849341;28;20026;-83